Ana Sayfa
METAR-TAF:

METAR-TAF

Havaalanları :

Longyearbyen, Norveç

Enlem: 78-15N, Boylam: 015-28E, yükseklik: 2 m

Güncel hava durumu gözlemi

Rapor saat 22:50 UTC de 1 saat ve 4 dakika önce yapıldı.
Rüzgar değişken yönden 1 kt
Sıcaklık 7°C
Nem 87%
Basınç 1005 hPa
Görüş mesafesi 10 km veya daha fazla
2000 ft yükseklikte az bulutlu
3500 ft yükseklikte parçalı çok bulutlu

METAR: ENSB 222250Z VRB01KT 9999 FEW020 BKN035 07/05 Q1005 RMK WIND 1400FT 00000KT

Saat: 01:54 (23:54 UTC)

Tahmin

Ayın 22'si saat 18 UTC'den ayın 23'si saat 18 UTC'ye kadar geçerli Tahmin
Rüzgar değişken yönden 5 kt
Görüş mesafesi 10 km veya daha fazla
1200 ft yükseklikte az bulutlu
3000 ft yükseklikte parçalı çok bulutlu
hafif yağmur

TAF: ENSB 2218/2318 VRB05KT 9999 -RA FEW012 BKN030

4.000'den fazla havaalanı için hava durumu gözlemleri ve tahminleri (METAR ve TAF raporları).

Kullanılabilir istasyonlar harita üzerinde sarı ve kırmızı noktalarla gösterilir.

İstasyonun adını görmek için fareyi noktanın üzerinde gezdirin.

Sonrasında hava gözlem ve tahminlerini görmek için tıklayın.

Haritayı değiştirmek için: yaklaştırmak için siyah artı işaretli yeşil düğmeye ve uzaklaştırmak için de eksi işaretli düğmeye hızla tıklayın; bitişik haritalar için yeşil okları kullanın.


METAR-TAF: